createdAt,value
2019-01-22T00:01:53.102Z,28.00
2019-01-22T00:04:21.367Z,28.75
2019-01-22T00:06:49.984Z,27.15
2019-01-22T00:09:18.465Z,27.65
2019-01-22T00:11:46.922Z,26.97
2019-01-22T00:14:15.851Z,28.07
2019-01-22T00:16:44.587Z,28.70
2019-01-22T00:19:13.294Z,28.62
2019-01-22T00:21:41.764Z,28.30
2019-01-22T00:24:11.699Z,29.65
2019-01-22T00:26:39.973Z,27.45
2019-01-22T00:29:08.622Z,28.02
2019-01-22T00:31:36.902Z,29.55
2019-01-22T00:34:05.923Z,28.73
2019-01-22T00:36:34.708Z,27.73
2019-01-22T00:39:04.190Z,26.30
2019-01-22T00:41:33.093Z,28.38
2019-01-22T00:44:01.581Z,27.22
2019-01-22T00:46:30.336Z,24.95
2019-01-22T00:48:58.869Z,26.55
2019-01-22T00:51:27.198Z,25.85
2019-01-22T00:53:55.504Z,26.70
2019-01-22T00:56:24.482Z,28.00
2019-01-22T00:58:53.069Z,27.77
2019-01-22T01:01:21.521Z,27.35
2019-01-22T01:03:49.894Z,25.17
2019-01-22T01:06:18.272Z,26.87
2019-01-22T01:08:46.609Z,27.80
2019-01-22T01:11:15.026Z,27.02
2019-01-22T01:13:43.845Z,25.95
2019-01-22T01:16:12.161Z,28.85
2019-01-22T01:18:40.579Z,27.10
2019-01-22T01:21:08.895Z,25.35
2019-01-22T01:23:37.660Z,24.52
2019-01-22T01:26:06.037Z,27.17
2019-01-22T01:28:34.280Z,27.02
2019-01-22T01:31:02.761Z,26.33
2019-01-22T01:33:31.135Z,24.82
2019-01-22T01:35:59.526Z,22.48
2019-01-22T01:38:27.926Z,23.95
2019-01-22T01:40:56.379Z,23.47
2019-01-22T01:43:24.881Z,27.02
2019-01-22T01:45:53.455Z,24.07
2019-01-22T01:48:21.842Z,23.92
2019-01-22T01:50:50.153Z,25.17
2019-01-22T01:53:23.813Z,24.98
2019-01-22T01:55:48.609Z,24.02
2019-01-22T01:58:17.181Z,26.00
2019-01-22T02:00:45.503Z,24.90
2019-01-22T02:03:14.141Z,24.07
2019-01-22T02:05:42.632Z,22.77
2019-01-22T02:08:10.923Z,20.77
2019-01-22T02:10:39.283Z,21.15
2019-01-22T02:13:08.989Z,24.50
2019-01-22T02:15:48.088Z,21.77
2019-01-22T02:18:33.051Z,23.77
2019-01-22T02:21:15.153Z,21.23
2019-01-22T02:23:47.916Z,21.48
2019-01-22T02:26:30.818Z,23.15
2019-01-22T02:29:00.765Z,20.88
2019-01-22T02:31:45.727Z,22.40
2019-01-22T02:34:24.651Z,23.20
2019-01-22T02:37:03.602Z,21.52
2019-01-22T02:39:33.429Z,20.82
2019-01-22T02:42:03.333Z,21.77
2019-01-22T02:44:48.706Z,20.75
2019-01-22T02:47:18.600Z,22.00
2019-01-22T02:49:48.417Z,22.48
2019-01-22T02:52:21.624Z,22.60
2019-01-22T02:54:51.715Z,23.10
2019-01-22T02:57:21.548Z,22.95
2019-01-22T02:59:54.093Z,23.90
2019-01-22T03:02:36.325Z,20.52
2019-01-22T03:05:09.396Z,24.32
2019-01-22T03:07:51.718Z,21.42
2019-01-22T03:10:21.609Z,21.05
2019-01-22T03:12:52.025Z,22.95
2019-01-22T03:15:22.151Z,21.25
2019-01-22T03:18:07.410Z,22.32
2019-01-22T03:20:37.322Z,23.70
2019-01-22T03:23:24.579Z,21.57
2019-01-22T03:26:09.431Z,23.30
2019-01-22T03:28:39.333Z,20.27
2019-01-22T03:31:09.550Z,20.77
2019-01-22T03:33:48.098Z,21.35
2019-01-22T03:36:23.919Z,20.12
2019-01-22T03:39:02.672Z,22.85
2019-01-22T03:41:41.754Z,22.25
2019-01-22T03:44:14.654Z,21.50
2019-01-22T03:46:50.285Z,20.32
2019-01-22T03:49:20.915Z,23.22
2019-01-22T03:51:50.705Z,21.80
2019-01-22T03:54:30.090Z,21.82
2019-01-22T03:57:00.005Z,19.95
2019-01-22T03:59:28.752Z,21.52
2019-01-22T04:01:57.272Z,23.87
2019-01-22T04:04:25.829Z,20.65
2019-01-22T04:06:54.949Z,22.82
2019-01-22T04:09:24.693Z,22.22
2019-01-22T04:11:53.134Z,20.68
2019-01-22T04:14:21.493Z,17.23
2019-01-22T04:16:49.857Z,19.32
2019-01-22T04:19:18.204Z,22.27
2019-01-22T04:21:46.610Z,21.05
2019-01-22T04:24:25.875Z,20.35
2019-01-22T04:26:58.947Z,21.15
2019-01-22T04:29:37.787Z,19.73
2019-01-22T04:32:07.652Z,20.15
2019-01-22T04:34:38.018Z,18.70
2019-01-22T04:37:10.569Z,18.95
2019-01-22T04:39:40.705Z,20.08
2019-01-22T04:42:10.522Z,21.93
2019-01-22T04:44:52.929Z,21.27
2019-01-22T04:47:39.602Z,19.00
2019-01-22T04:50:23.059Z,20.45
2019-01-22T04:52:55.913Z,21.37
2019-01-22T04:55:52.059Z,21.52
2019-01-22T04:58:25.727Z,23.00
2019-01-22T05:01:12.465Z,21.95
2019-01-22T05:03:47.163Z,23.20
2019-01-22T05:06:33.960Z,22.50
2019-01-22T05:09:18.735Z,22.37
2019-01-22T05:12:08.141Z,22.52
2019-01-22T05:14:48.521Z,23.02
2019-01-22T05:17:29.348Z,21.05
2019-01-22T05:20:01.750Z,22.35
2019-01-22T05:22:36.733Z,21.23
2019-01-22T05:25:14.124Z,21.48
2019-01-22T05:27:54.677Z,22.62
2019-01-22T05:30:32.314Z,21.80
2019-01-22T05:33:20.624Z,21.23
2019-01-22T05:36:10.653Z,23.20
2019-01-22T05:38:48.854Z,22.00
2019-01-22T05:41:37.399Z,23.52
2019-01-22T05:44:20.694Z,21.77
2019-01-22T05:47:16.512Z,20.92
2019-01-22T05:49:57.006Z,21.00
2019-01-22T05:52:44.132Z,21.80
2019-01-22T05:55:31.285Z,20.37
2019-01-22T05:58:36.899Z,20.95
2019-01-22T06:01:08.685Z,20.62
2019-01-22T06:03:40.634Z,20.82
2019-01-22T06:06:18.779Z,21.60
2019-01-22T06:09:10.277Z,22.27
2019-01-22T06:11:43.706Z,20.30
2019-01-22T06:14:14.232Z,20.85
2019-01-22T06:16:47.145Z,19.65
2019-01-22T06:19:29.756Z,21.17
2019-01-22T06:22:17.317Z,19.67
2019-01-22T06:24:59.867Z,20.50
2019-01-22T06:27:29.293Z,21.65
2019-01-22T06:30:17.510Z,20.37
2019-01-22T06:32:47.707Z,19.80
2019-01-22T06:35:17.876Z,19.30
2019-01-22T06:37:50.661Z,20.85
2019-01-22T06:40:23.607Z,19.73
2019-01-22T06:43:10.431Z,21.00
2019-01-22T06:45:40.567Z,20.65
2019-01-22T06:48:20.208Z,20.48
2019-01-22T06:50:59.254Z,20.65
2019-01-22T06:53:35.371Z,20.48
2019-01-22T06:56:17.705Z,20.90
2019-01-22T06:58:56.903Z,20.52
2019-01-22T07:01:27.424Z,20.02
2019-01-22T07:04:01.221Z,21.45
2019-01-22T07:06:34.866Z,18.45
2019-01-22T07:09:23.320Z,21.45
2019-01-22T07:11:56.442Z,19.52
2019-01-22T07:14:32.419Z,20.77
2019-01-22T07:17:02.542Z,19.10
2019-01-22T07:19:32.654Z,20.70
2019-01-22T07:22:11.660Z,20.50
2019-01-22T07:24:46.716Z,19.87
2019-01-22T07:27:19.630Z,21.45
2019-01-22T07:29:52.690Z,19.45
2019-01-22T07:32:31.710Z,20.27
2019-01-22T07:35:01.832Z,22.42
2019-01-22T07:37:32.046Z,20.97
2019-01-22T07:40:05.115Z,19.82
2019-01-22T07:42:47.879Z,20.45
2019-01-22T07:45:20.937Z,19.50
2019-01-22T07:47:51.058Z,21.42
2019-01-22T07:50:21.181Z,21.12
2019-01-22T07:52:54.077Z,19.60
2019-01-22T07:55:36.225Z,19.17
2019-01-22T07:58:15.713Z,21.62
2019-01-22T08:01:02.561Z,20.08
2019-01-22T08:03:50.882Z,19.27
2019-01-22T08:06:21.054Z,19.85
2019-01-22T08:08:54.255Z,20.27
2019-01-22T08:11:41.166Z,21.02
2019-01-22T08:14:11.386Z,19.73
2019-01-22T08:16:41.947Z,20.23
2019-01-22T08:19:30.314Z,18.27
2019-01-22T08:22:18.607Z,18.82
2019-01-22T08:24:49.056Z,18.95
2019-01-22T08:27:22.118Z,22.25
2019-01-22T08:29:52.335Z,22.20
2019-01-22T08:32:34.397Z,19.97
2019-01-22T08:35:22.607Z,22.17
2019-01-22T08:37:55.156Z,19.83
2019-01-22T08:40:24.998Z,21.30
2019-01-22T08:42:58.083Z,23.20
2019-01-22T08:45:45.104Z,21.80
2019-01-22T08:48:27.216Z,22.00
2019-01-22T08:51:00.249Z,23.50
2019-01-22T08:53:30.089Z,22.50
2019-01-22T08:55:59.970Z,23.53
2019-01-22T08:58:42.938Z,24.00
2019-01-22T09:01:15.874Z,22.10
2019-01-22T09:03:48.582Z,22.30
2019-01-22T09:06:30.650Z,22.30
2019-01-22T09:09:15.502Z,19.43
2019-01-22T09:11:45.433Z,18.37
2019-01-22T09:14:18.313Z,21.20
2019-01-22T09:16:48.143Z,20.63
2019-01-22T09:19:17.980Z,23.00
2019-01-22T09:21:58.627Z,23.00
2019-01-22T09:24:31.171Z,24.93
2019-01-22T09:27:06.990Z,23.40
2019-01-22T09:29:36.851Z,23.43
2019-01-22T09:32:06.750Z,23.83
2019-01-22T09:34:43.010Z,22.30
2019-01-22T09:37:12.913Z,23.20
2019-01-22T09:39:41.294Z,21.77
2019-01-22T09:42:09.634Z,22.67
2019-01-22T09:44:38.056Z,21.60
2019-01-22T09:47:06.348Z,22.30
2019-01-22T09:49:35.492Z,20.60
2019-01-22T09:52:04.139Z,22.73
2019-01-22T09:54:32.518Z,19.57
2019-01-22T09:57:00.879Z,18.23
2019-01-22T09:59:29.657Z,20.20
2019-01-22T10:01:58.464Z,17.33
2019-01-22T10:04:27.353Z,20.50
2019-01-22T10:06:56.144Z,20.87
2019-01-22T10:09:24.438Z,19.77
2019-01-22T10:11:52.823Z,20.00
2019-01-22T10:14:21.182Z,17.87
2019-01-22T10:16:49.653Z,20.90
2019-01-22T10:19:17.921Z,21.10
2019-01-22T10:21:46.709Z,20.77
2019-01-22T10:24:15.055Z,17.20
2019-01-22T10:26:43.534Z,21.13
2019-01-22T10:29:12.319Z,20.30
2019-01-22T10:31:40.831Z,21.63
2019-01-22T10:34:09.312Z,20.70
2019-01-22T10:36:37.736Z,19.17
2019-01-22T10:39:06.857Z,18.97
2019-01-22T10:41:35.263Z,20.87
2019-01-22T10:44:03.715Z,20.40
2019-01-22T10:46:32.020Z,20.80
2019-01-22T10:49:00.802Z,18.60
2019-01-22T10:51:29.149Z,20.40
2019-01-22T10:53:57.428Z,21.57
2019-01-22T10:56:25.744Z,18.93
2019-01-22T10:58:54.178Z,23.53
2019-01-22T11:01:22.486Z,19.80
2019-01-22T11:03:50.954Z,21.83
2019-01-22T11:06:19.646Z,19.60
2019-01-22T11:08:48.093Z,20.30
2019-01-22T11:11:16.458Z,20.47
2019-01-22T11:13:44.848Z,19.50
2019-01-22T11:16:13.358Z,19.67
2019-01-22T11:18:42.147Z,18.43
2019-01-22T11:21:10.721Z,19.50
2019-01-22T11:23:39.411Z,19.77
2019-01-22T11:26:07.863Z,18.40
2019-01-22T11:28:36.677Z,21.40
2019-01-22T11:31:05.361Z,21.97
2019-01-22T11:33:33.641Z,21.90
2019-01-22T11:36:01.898Z,22.70
2019-01-22T11:38:30.383Z,21.43
2019-01-22T11:40:58.839Z,24.27
2019-01-22T11:43:27.149Z,20.83
2019-01-22T11:45:55.491Z,21.13
2019-01-22T11:48:23.970Z,20.30
2019-01-22T11:50:52.685Z,21.93
2019-01-22T11:53:21.028Z,21.50
2019-01-22T11:55:50.630Z,22.73
2019-01-22T11:58:19.250Z,19.77
2019-01-22T12:00:49.398Z,21.63
2019-01-22T12:03:17.947Z,19.33
2019-01-22T12:05:46.735Z,19.93
2019-01-22T12:08:15.086Z,20.80
2019-01-22T12:10:43.496Z,20.77
2019-01-22T12:13:11.966Z,23.33
2019-01-22T12:15:41.559Z,23.03
2019-01-22T12:18:09.939Z,23.57
2019-01-22T12:20:40.172Z,24.20
2019-01-22T12:23:08.755Z,23.47
2019-01-22T12:25:37.166Z,20.63
2019-01-22T12:28:05.917Z,25.23
2019-01-22T12:30:35.608Z,18.87
2019-01-22T12:33:05.442Z,22.80
2019-01-22T12:35:33.915Z,23.20
2019-01-22T12:38:02.494Z,21.03
2019-01-22T12:40:30.847Z,21.97
2019-01-22T12:42:59.522Z,21.90
2019-01-22T12:45:29.574Z,23.00
2019-01-22T12:47:58.023Z,22.53
2019-01-22T12:50:27.247Z,19.57
2019-01-22T12:52:55.601Z,23.43
2019-01-22T12:55:23.927Z,22.27
2019-01-22T12:57:52.193Z,22.90
2019-01-22T13:00:24.744Z,22.20
2019-01-22T13:02:53.202Z,20.80
2019-01-22T13:05:23.091Z,20.40
2019-01-22T13:07:51.900Z,19.83
2019-01-22T13:10:20.275Z,21.53
2019-01-22T13:12:49.063Z,19.70
2019-01-22T13:15:17.572Z,17.70
2019-01-22T13:17:45.918Z,19.03
2019-01-22T13:20:15.935Z,20.53
2019-01-22T13:22:44.752Z,20.97
2019-01-22T13:25:13.713Z,19.97
2019-01-22T13:27:42.091Z,22.00
2019-01-22T13:30:14.771Z,19.80
2019-01-22T13:32:43.146Z,19.40
2019-01-22T13:35:11.627Z,18.80
2019-01-22T13:37:40.061Z,19.80
2019-01-22T13:40:09.938Z,18.07
2019-01-22T13:42:38.323Z,19.10
2019-01-22T13:45:36.907Z,20.33
2019-01-22T13:48:07.025Z,20.53
2019-01-22T13:50:35.502Z,20.10
2019-01-22T13:53:04.496Z,21.47
2019-01-22T13:55:34.379Z,19.60
2019-01-22T13:58:02.669Z,19.40
2019-01-22T14:00:31.064Z,21.77
2019-01-22T14:03:00.566Z,21.03
2019-01-22T14:05:29.028Z,21.37
2019-01-22T14:07:57.800Z,22.27
2019-01-22T14:10:26.285Z,20.03
2019-01-22T14:12:54.706Z,21.60
2019-01-22T14:15:27.231Z,20.40
2019-01-22T14:17:55.632Z,20.20
2019-01-22T14:20:24.339Z,18.60
2019-01-22T14:22:52.593Z,18.60
2019-01-22T14:25:21.441Z,19.20
2019-01-22T14:27:49.928Z,19.27
2019-01-22T14:30:23.135Z,21.73
2019-01-22T14:32:51.522Z,19.60
2019-01-22T14:35:20.339Z,20.40
2019-01-22T14:37:48.768Z,20.67
2019-01-22T14:40:17.131Z,19.37
2019-01-22T14:42:45.575Z,18.17
2019-01-22T14:45:15.414Z,20.90
2019-01-22T14:47:43.810Z,21.20
2019-01-22T14:50:13.724Z,20.80
2019-01-22T14:52:42.437Z,21.70
2019-01-22T14:55:10.990Z,19.40
2019-01-22T14:57:39.378Z,20.00
2019-01-22T15:00:09.281Z,19.20
2019-01-22T15:02:37.654Z,19.90
2019-01-22T15:05:06.752Z,19.93
2019-01-22T15:07:35.149Z,20.37
2019-01-22T15:10:04.631Z,21.50
2019-01-22T15:12:32.924Z,19.13
2019-01-22T15:15:01.303Z,22.20
2019-01-22T15:17:29.772Z,19.80
2019-01-22T15:19:58.173Z,21.70
2019-01-22T15:22:26.516Z,20.03
2019-01-22T15:24:55.909Z,22.10
2019-01-22T15:27:24.227Z,22.17
2019-01-22T15:29:52.609Z,22.90
2019-01-22T15:32:21.283Z,21.17
2019-01-22T15:34:49.629Z,24.90
2019-01-22T15:37:18.006Z,23.73
2019-01-22T15:39:46.688Z,23.20
2019-01-22T15:42:15.078Z,23.87
2019-01-22T15:44:43.481Z,25.20
2019-01-22T15:47:12.061Z,24.70
2019-01-22T15:49:40.403Z,24.90
2019-01-22T15:52:09.426Z,26.80
2019-01-22T15:54:38.021Z,23.38
2019-01-22T15:57:06.663Z,24.95
2019-01-22T15:59:37.100Z,26.90
2019-01-22T16:02:05.665Z,24.93
2019-01-22T16:04:34.660Z,25.17
2019-01-22T16:07:03.271Z,26.40
2019-01-22T16:09:32.338Z,26.37
2019-01-22T16:12:01.026Z,29.75
2019-01-22T16:14:29.702Z,28.87
2019-01-22T16:16:58.410Z,28.92
2019-01-22T16:19:27.080Z,27.90
2019-01-22T16:21:55.674Z,29.65
2019-01-22T16:24:24.782Z,24.65
2019-01-22T16:26:53.584Z,27.50
2019-01-22T16:29:22.225Z,27.93
2019-01-22T16:31:50.903Z,26.07
2019-01-22T16:34:19.821Z,27.45
2019-01-22T16:36:48.474Z,30.90
2019-01-22T16:39:17.069Z,27.58
2019-01-22T16:41:45.628Z,29.67
2019-01-22T16:44:14.662Z,27.40
2019-01-22T16:46:43.269Z,27.58
2019-01-22T16:49:11.928Z,28.55
2019-01-22T16:51:40.584Z,31.20
2019-01-22T16:54:09.173Z,29.30
2019-01-22T16:56:38.142Z,29.25
2019-01-22T16:59:07.137Z,30.60
2019-01-22T17:01:36.330Z,28.95
2019-01-22T17:04:05.386Z,30.17
2019-01-22T17:06:34.313Z,31.60
2019-01-22T17:09:04.780Z,29.23
2019-01-22T17:11:34.140Z,31.93
2019-01-22T17:14:03.133Z,29.05
2019-01-22T17:16:32.034Z,30.60
2019-01-22T17:19:01.052Z,29.85
2019-01-22T17:21:30.205Z,28.62
2019-01-22T17:23:59.608Z,31.85
2019-01-22T17:26:28.740Z,30.50
2019-01-22T17:28:57.618Z,28.95
2019-01-22T17:31:33.857Z,32.15
2019-01-22T17:34:02.549Z,26.30
2019-01-22T17:36:31.569Z,29.00
2019-01-22T17:39:01.763Z,32.20
2019-01-22T17:41:30.344Z,33.13
2019-01-22T17:43:58.940Z,31.87
2019-01-22T17:46:27.944Z,30.90
2019-01-22T17:48:56.597Z,30.88
2019-01-22T17:51:25.519Z,28.52
2019-01-22T17:53:54.171Z,29.42
2019-01-22T17:56:22.733Z,29.02
2019-01-22T17:58:51.386Z,29.65
2019-01-22T18:01:19.946Z,31.52
2019-01-22T18:03:48.505Z,30.85
2019-01-22T18:06:17.187Z,30.32
2019-01-22T18:08:45.743Z,31.52
2019-01-22T18:11:14.686Z,32.28
2019-01-22T18:13:43.369Z,32.50
2019-01-22T18:16:12.333Z,32.48
2019-01-22T18:18:40.920Z,33.05
2019-01-22T18:21:09.828Z,31.82
2019-01-22T18:23:38.394Z,33.42
2019-01-22T18:26:07.096Z,32.60
2019-01-22T18:28:35.755Z,31.80
2019-01-22T18:31:05.573Z,32.03
2019-01-22T18:33:34.478Z,35.88
2019-01-22T18:36:03.143Z,33.80
2019-01-22T18:38:31.766Z,31.77
2019-01-22T18:41:00.808Z,34.10
2019-01-22T18:43:29.376Z,35.60
2019-01-22T18:45:58.123Z,35.80
2019-01-22T18:48:26.760Z,33.00
2019-01-22T18:50:55.780Z,32.33
2019-01-22T18:53:24.670Z,31.37
2019-01-22T18:55:53.356Z,33.58
2019-01-22T18:58:22.185Z,33.30
2019-01-22T19:00:52.682Z,33.70
2019-01-22T19:03:21.559Z,33.28
2019-01-22T19:05:50.126Z,34.20
2019-01-22T19:08:18.796Z,32.10
2019-01-22T19:10:47.374Z,33.63
2019-01-22T19:13:15.937Z,33.00
2019-01-22T19:15:44.948Z,32.30
2019-01-22T19:18:13.517Z,30.77
2019-01-22T19:20:42.215Z,28.10
2019-01-22T19:23:10.800Z,31.75
2019-01-22T19:25:39.482Z,34.13
2019-01-22T19:28:08.115Z,32.70
2019-01-22T19:30:38.387Z,34.20
2019-01-22T19:33:07.254Z,33.92
2019-01-22T19:35:36.066Z,33.23
2019-01-22T19:38:04.705Z,31.00
2019-01-22T19:40:33.376Z,31.55
2019-01-22T19:43:02.012Z,30.82
2019-01-22T19:45:31.822Z,29.52
2019-01-22T19:48:01.480Z,33.67
2019-01-22T19:50:29.997Z,30.68
2019-01-22T19:52:58.565Z,30.45
2019-01-22T19:55:27.172Z,29.00
2019-01-22T19:57:55.855Z,29.42
2019-01-22T20:00:27.342Z,30.40
2019-01-22T20:02:56.433Z,31.73
2019-01-22T20:05:25.022Z,30.82
2019-01-22T20:07:53.624Z,30.88
2019-01-22T20:10:24.162Z,29.98
2019-01-22T20:12:52.740Z,32.88
2019-01-22T20:15:24.272Z,31.37
2019-01-22T20:17:53.420Z,32.75
2019-01-22T20:20:22.064Z,28.15
2019-01-22T20:22:50.652Z,31.30
2019-01-22T20:25:19.286Z,34.48
2019-01-22T20:27:48.655Z,30.80
2019-01-22T20:30:21.696Z,29.30
2019-01-22T20:32:50.440Z,31.62
2019-01-22T20:35:19.080Z,31.48
2019-01-22T20:37:48.112Z,32.55
2019-01-22T20:40:16.767Z,29.72
2019-01-22T20:42:45.383Z,31.27
2019-01-22T20:45:18.193Z,31.82
2019-01-22T20:47:46.838Z,29.85
2019-01-22T20:50:19.278Z,31.45
2019-01-22T20:52:45.854Z,28.62
2019-01-22T20:55:16.176Z,28.60
2019-01-22T20:57:44.758Z,29.80
2019-01-22T21:00:14.881Z,32.20
2019-01-22T21:02:43.515Z,28.73
2019-01-22T21:05:14.222Z,30.15
2019-01-22T21:07:42.818Z,33.10
2019-01-22T21:10:18.519Z,28.65
2019-01-22T21:12:47.084Z,29.50
2019-01-22T21:15:15.742Z,31.42
2019-01-22T21:17:44.398Z,31.27
2019-01-22T21:20:16.913Z,32.50
2019-01-22T21:22:45.938Z,28.65
2019-01-22T21:25:15.848Z,30.08
2019-01-22T21:27:44.694Z,31.07
2019-01-22T21:30:14.855Z,29.37
2019-01-22T21:32:43.500Z,30.45
2019-01-22T21:35:12.356Z,33.42
2019-01-22T21:37:41.011Z,32.63
2019-01-22T21:40:10.752Z,30.48
2019-01-22T21:42:39.350Z,32.33
2019-01-22T21:45:12.284Z,28.98
2019-01-22T21:47:40.882Z,28.70
2019-01-22T21:50:11.087Z,31.25
2019-01-22T21:52:39.752Z,28.92
2019-01-22T21:55:10.122Z,29.72
2019-01-22T21:57:39.190Z,31.25
2019-01-22T22:00:09.836Z,30.75
2019-01-22T22:02:38.422Z,33.42
2019-01-22T22:05:08.522Z,30.72
2019-01-22T22:07:37.168Z,29.35
2019-01-22T22:10:07.348Z,30.25
2019-01-22T22:12:36.035Z,31.90
2019-01-22T22:15:06.150Z,29.48
2019-01-22T22:17:36.707Z,29.27
2019-01-22T22:20:06.693Z,29.32
2019-01-22T22:22:35.346Z,29.98
2019-01-22T22:25:07.634Z,29.77
2019-01-22T22:27:38.071Z,31.30
2019-01-22T22:30:26.255Z,32.73
2019-01-22T22:32:54.895Z,28.90
2019-01-22T22:35:23.474Z,30.35
2019-01-22T22:37:52.236Z,31.27
2019-01-22T22:40:21.355Z,31.30
2019-01-22T22:42:50.154Z,29.90
2019-01-22T22:45:19.954Z,28.30
2019-01-22T22:47:48.969Z,31.27
2019-01-22T22:50:19.140Z,30.95
2019-01-22T22:52:48.261Z,31.85
2019-01-22T22:55:17.226Z,29.80
2019-01-22T22:57:46.243Z,30.52
2019-01-22T23:00:33.156Z,30.80
2019-01-22T23:03:02.434Z,30.85
2019-01-22T23:05:31.652Z,29.23
2019-01-22T23:08:00.217Z,30.57
2019-01-22T23:10:28.994Z,30.65
2019-01-22T23:12:57.567Z,32.00
2019-01-22T23:15:26.870Z,31.15
2019-01-22T23:17:55.570Z,30.72
2019-01-22T23:20:24.577Z,26.75
2019-01-22T23:22:53.194Z,30.95
2019-01-22T23:25:22.152Z,30.10
2019-01-22T23:27:50.723Z,30.60
2019-01-22T23:30:19.485Z,29.67
2019-01-22T23:32:48.406Z,28.50
2019-01-22T23:35:17.221Z,28.57
2019-01-22T23:37:45.786Z,27.85
2019-01-22T23:40:15.584Z,29.65
2019-01-22T23:42:44.222Z,29.82
2019-01-22T23:45:13.675Z,29.45
2019-01-22T23:47:42.558Z,29.20
2019-01-22T23:50:12.132Z,30.55
2019-01-22T23:52:40.747Z,29.02
2019-01-22T23:55:10.847Z,29.60
2019-01-22T23:57:41.123Z,28.77
